Rechercher aéroport 
image banner adimage banner adimage banner ad
image banner ad

26CN - Vincent Substation

Situé à Acton, United States

ICAO - 26CN, IATA -

Données fournies par Airmate  

Information générale

Coordonnées: N34°29'12" W118°6'57"
Élévation : 3244 feet MSL.
Variation magnétique : 14° East
Voir autres Aéroports à California

Données opérationnelles

Special qualification required
Heure actuelle UTC:
Heure actuelle locale:
Météo à : KPMD - Palmdale Usaf Plant 42 ( 16 km )
METAR: KPMD 251153Z AUTO 21012KT 10SM CLR 26/00 A2997 RMK AO2 SLP116 T02560000 10289 20239 58001 $
TAF: KPMD 251158Z 2512/2612 20006KT P6SM BKN120 FM252100 23015G23KT P6SM BKN070 OVC120 FM260300 23010KT P6SM OVC120 FM260900 21007KT P6SM VCSH OVC120
Voir NOTAMs / SUP AIP / TFR affectant cet aéroport [VIEW]
Fréquences de communication: [VIEW]

Pistes:

Coordonnées de l'aéroport

Adresse: Acton United States

Vue satellite de 26CN